createdAt,value
2022-09-20T04:52:23.103Z,4.45
2022-09-20T04:55:32.160Z,4.55
2022-09-20T04:58:35.602Z,8.02
2022-09-20T05:01:50.733Z,7.90
2022-09-20T05:07:29.910Z,7.68
2022-09-20T05:38:51.443Z,4.97
2022-09-20T05:41:33.554Z,5.10
2022-09-20T05:44:44.444Z,7.22
2022-09-20T05:47:44.655Z,6.63
2022-09-20T05:50:35.403Z,10.18
2022-09-20T05:53:50.464Z,4.80
2022-09-20T06:21:54.148Z,4.97
2022-09-20T06:24:42.740Z,9.40
2022-09-20T06:27:24.128Z,5.20
2022-09-20T06:30:06.729Z,6.93
2022-09-20T06:32:34.218Z,10.68
2022-09-20T06:35:02.669Z,7.80
2022-09-20T06:53:31.970Z,12.50
2022-09-20T06:56:00.466Z,7.85
2022-09-20T06:58:27.765Z,11.68
2022-09-20T07:00:55.021Z,6.97
2022-09-20T07:03:22.294Z,7.35
2022-09-20T07:05:49.781Z,11.18
2022-09-20T07:08:16.896Z,4.88
2022-09-20T07:16:08.100Z,12.43
2022-09-20T07:18:35.072Z,5.40
2022-09-20T07:21:02.767Z,10.75
2022-09-20T07:23:31.064Z,5.82
2022-09-20T07:26:01.208Z,6.43
2022-09-20T07:28:29.897Z,5.60
2022-09-20T07:30:57.267Z,6.00
2022-09-20T07:48:04.885Z,5.50
2022-09-20T07:50:34.042Z,10.70
2022-09-20T07:53:02.275Z,8.65
2022-09-20T07:55:30.550Z,5.95
2022-09-20T07:57:57.432Z,6.68
2022-09-20T08:00:24.336Z,7.88
2022-09-20T08:02:58.717Z,8.30
2022-09-20T08:09:59.218Z,6.60
2022-09-20T08:15:15.160Z,5.35
2022-09-20T08:17:48.164Z,4.20
2022-09-20T08:20:16.401Z,5.75
2022-09-20T08:22:44.414Z,8.85
2022-09-20T08:25:11.194Z,7.97
2022-09-20T08:30:16.962Z,4.90
2022-09-20T08:32:43.982Z,12.98
2022-09-20T08:35:11.337Z,6.97
2022-09-20T08:37:38.919Z,8.63
2022-09-20T08:40:06.486Z,12.73
2022-09-20T08:42:43.771Z,7.07
2022-09-20T08:45:23.435Z,9.27
2022-09-20T08:53:05.213Z,6.72
2022-09-20T08:55:37.079Z,4.90
2022-09-20T08:58:08.729Z,8.27
2022-09-20T09:01:22.132Z,6.00
2022-09-20T09:03:57.757Z,4.60
2022-09-20T09:06:24.729Z,5.70
2022-09-20T09:11:45.807Z,6.25
2022-09-20T09:14:34.730Z,6.05
2022-09-20T09:17:02.134Z,6.30
2022-09-20T09:20:02.516Z,5.75
2022-09-20T09:25:31.717Z,9.80
2022-09-20T09:31:21.968Z,5.45
2022-09-20T09:33:49.246Z,7.38
2022-09-20T09:36:25.530Z,6.47
2022-09-20T09:39:28.713Z,6.72
2022-09-20T09:41:56.901Z,9.27
2022-09-20T09:44:25.171Z,6.43
2022-09-20T09:52:25.385Z,5.88
2022-09-20T09:55:02.408Z,6.75
2022-09-20T09:58:23.732Z,5.18
2022-09-20T10:00:53.450Z,4.90
2022-09-20T10:06:53.384Z,8.13
2022-09-20T10:14:54.988Z,7.82
2022-09-20T10:17:37.767Z,6.88
2022-09-20T10:20:29.119Z,7.07
2022-09-20T10:24:01.909Z,7.13
2022-09-20T10:26:36.599Z,6.85
2022-09-20T10:34:20.431Z,7.00
2022-09-20T10:36:57.482Z,8.45
2022-09-20T10:39:40.466Z,4.82
2022-09-20T10:42:54.299Z,5.90
2022-09-20T10:48:52.435Z,5.70
2022-09-20T10:54:37.957Z,6.03
2022-09-20T10:57:37.753Z,5.47
2022-09-20T11:00:31.768Z,4.55
2022-09-20T11:03:33.132Z,6.60
2022-09-20T11:06:37.162Z,11.15
2022-09-20T11:09:13.256Z,4.78
2022-09-20T11:14:34.993Z,6.43
2022-09-20T11:17:11.424Z,6.30
2022-09-20T11:19:42.179Z,4.57
2022-09-20T11:22:23.493Z,6.63
2022-09-20T11:25:29.506Z,7.75
2022-09-20T11:28:19.867Z,5.88
2022-09-20T11:37:03.241Z,7.25
2022-09-20T11:39:51.521Z,4.75
2022-09-20T11:42:24.044Z,5.53
2022-09-20T11:44:51.275Z,4.45
2022-09-20T11:47:42.839Z,4.40
2022-09-20T11:50:32.760Z,3.97
2022-09-20T11:58:50.633Z,6.35
2022-09-20T12:01:28.424Z,6.28
2022-09-20T12:04:31.845Z,5.97
2022-09-20T12:07:18.076Z,3.47
2022-09-20T12:09:53.949Z,3.72
2022-09-20T12:12:46.382Z,4.20
2022-09-20T12:21:01.940Z,3.33
2022-09-20T12:23:37.998Z,3.78
2022-09-20T12:26:18.295Z,4.18
2022-09-20T12:28:49.662Z,2.50
2022-09-20T12:31:19.665Z,2.25
2022-09-20T12:34:04.603Z,2.80
2022-09-20T12:36:42.604Z,2.20
2022-09-20T12:42:18.511Z,2.30
2022-09-20T12:45:00.021Z,3.08
2022-09-20T12:47:37.604Z,1.50
2022-09-20T12:50:41.571Z,2.03
2022-09-20T12:53:18.077Z,2.92
2022-09-20T12:56:07.553Z,4.10
2022-09-20T13:04:54.858Z,4.55
2022-09-20T13:07:43.790Z,4.50
2022-09-20T13:10:23.669Z,3.05
2022-09-20T13:13:51.277Z,6.03
2022-09-20T13:16:29.112Z,7.43
2022-09-20T13:19:18.581Z,3.97
2022-09-20T13:27:33.934Z,0.90
2022-09-20T13:30:41.370Z,3.30
2022-09-20T13:33:37.492Z,2.03
2022-09-20T13:36:04.522Z,1.45
2022-09-20T13:39:28.425Z,2.58
2022-09-20T13:47:30.056Z,4.53
2022-09-20T13:50:09.417Z,1.77
2022-09-20T13:52:51.368Z,2.58
2022-09-20T13:55:29.394Z,1.67
2022-09-20T13:58:08.154Z,3.10
2022-09-20T14:00:47.359Z,2.92
2022-09-20T14:08:50.678Z,4.15
2022-09-20T14:11:29.663Z,3.10
2022-09-20T14:13:59.932Z,2.95
2022-09-20T14:16:37.804Z,3.05
2022-09-20T14:19:09.544Z,2.53
2022-09-20T14:21:38.029Z,4.47
2022-09-20T14:29:29.948Z,1.00
2022-09-20T14:34:24.880Z,1.27
2022-09-20T14:37:04.954Z,2.33
2022-09-20T14:39:32.863Z,1.70
2022-09-20T14:41:59.651Z,1.67
2022-09-20T14:44:33.172Z,1.45
2022-09-20T15:01:33.304Z,1.90
2022-09-20T15:04:10.318Z,4.47
2022-09-20T15:06:39.737Z,1.85
2022-09-20T15:09:08.843Z,4.00
2022-09-20T15:11:36.555Z,4.57
2022-09-20T15:14:03.520Z,2.42
2022-09-20T15:16:30.792Z,5.05
2022-09-20T15:34:26.561Z,1.65
2022-09-20T15:36:54.272Z,1.33
2022-09-20T15:39:24.402Z,1.17
2022-09-20T15:41:52.913Z,1.75
2022-09-20T15:44:19.824Z,4.28
2022-09-20T15:47:05.612Z,2.55
2022-09-20T15:52:54.071Z,3.95
2022-09-20T15:55:23.814Z,1.70
2022-09-20T15:57:50.503Z,0.65
2022-09-20T16:00:17.747Z,1.63
2022-09-20T16:02:49.263Z,4.93
2022-09-20T16:05:17.096Z,0.98
2022-09-20T16:08:09.524Z,0.25
2022-09-20T16:15:04.784Z,0.82
2022-09-20T16:17:50.098Z,1.20
2022-09-20T16:20:17.097Z,1.10
2022-09-20T16:22:48.602Z,2.10
2022-09-20T16:25:15.456Z,1.00
2022-09-20T16:27:43.276Z,1.60
2022-09-20T16:30:10.978Z,0.95
2022-09-20T16:35:20.652Z,0.82
2022-09-20T16:37:47.859Z,1.55
2022-09-20T16:40:14.760Z,2.95
2022-09-20T16:42:56.411Z,1.25
2022-09-20T16:45:23.775Z,1.45
2022-09-20T16:47:50.951Z,1.63
2022-09-20T16:50:17.906Z,1.67
2022-09-20T20:27:32.252Z,6.57
2022-09-20T20:30:01.941Z,8.15
2022-09-20T20:32:28.905Z,6.65
2022-09-20T20:34:55.997Z,5.78
2022-09-20T20:37:24.117Z,5.32
2022-09-20T20:39:51.609Z,5.18
2022-09-20T20:42:19.108Z,4.88
